»·PEaware :: CAX357 KIFP-MMES

CAX357 :: KIFP-MMES

FLIGHT INFORMATION

Flight Status: Arrived
Operator:
California Airlines (website)
More flights by this operator :: More flights under this callsign
Pilot: Brandon K. (3556)
Aircraft: BEECH AIRCRAFT SUPER KING AIR COMMUTER
(BE20)
More flights by this aircraft type
Origin: KIFP Laughlin/Bullhead Intl
United States
Destination: MMES Ensenada Intl
Mexico
More flights between these airports :: More routes between these airports
Route: EED PKE BLH BZA MXL
File this flight plan on PilotEdge
Remarks:
Altitude:
(Current/Filed)
10,500ft
Speed:
(Current/Filed)
280kts
Departed: 02-Nov-14 09:57 AM
Arrived: 02-Nov-14 11:05 AM
Distance/Time
Traveled:
226nm/1:07
Distance/Time
To Go:
Arrived

Flight Plot

Page will automatically refresh every two minutes.


Map Options




Map Legend


Flown Route
Filed Route
Departure Airport
Arrival Airport
Navaid (VOR, NDB)
Fix

Horizontal Profiles

Position Reports

Time Latitude Longitude Heading Altitude Ground
Speed
02-Nov-14 09:39 35.160707 -114.556379 266 705ft 0kts
02-Nov-14 09:40 35.160707 -114.556379 266 705ft 0kts
02-Nov-14 09:41 35.160707 -114.556379 266 705ft 0kts
02-Nov-14 09:42 35.160707 -114.556379 266 705ft 0kts
02-Nov-14 09:43 35.160707 -114.556379 266 705ft 0kts
02-Nov-14 09:44 35.160707 -114.556379 266 705ft 0kts
02-Nov-14 09:45 35.160707 -114.556379 266 705ft 0kts
02-Nov-14 09:46 35.160707 -114.556379 266 705ft 0kts
02-Nov-14 09:47 35.160707 -114.556379 266 705ft 0kts
02-Nov-14 09:48 35.160707 -114.556379 266 705ft 0kts
02-Nov-14 09:49 35.160707 -114.556379 266 705ft 0kts
02-Nov-14 09:50 35.160184 -114.556685 176 705ft 9kts
02-Nov-14 09:51 35.159569 -114.558239 317 705ft 6kts
02-Nov-14 09:52 35.161333 -114.558450 355 705ft 7kts
02-Nov-14 09:53 35.164883 -114.558709 356 705ft 11kts
02-Nov-14 09:54 35.166200 -114.559170 271 705ft 0kts
02-Nov-14 09:55 35.164296 -114.560074 176 705ft 69kts
02-Nov-14 09:56 35.114278 -114.555778 164 2081ft 215kts
02-Nov-14 09:57 35.055049 -114.538023 168 3692ft 222kts
02-Nov-14 09:58 34.994879 -114.523998 169 5449ft 222kts
02-Nov-14 09:59 34.934594 -114.510705 169 7310ft 228kts
02-Nov-14 10:00 34.872763 -114.497200 168 9201ft 228kts
02-Nov-14 10:01 34.820277 -114.485697 168 10455ft 245kts
02-Nov-14 10:02 34.748683 -114.479015 193 10483ft 270kts
02-Nov-14 10:03 34.676165 -114.502217 193 10480ft 272kts
02-Nov-14 10:04 34.603306 -114.525189 193 10480ft 269kts
02-Nov-14 10:05 34.531465 -114.547702 193 10479ft 265kts
02-Nov-14 10:06 34.459929 -114.570129 193 10479ft 266kts
02-Nov-14 10:07 34.388125 -114.592597 193 10480ft 267kts
02-Nov-14 10:08 34.316260 -114.615065 193 10480ft 266kts
02-Nov-14 10:09 34.244854 -114.637314 193 10480ft 264kts
02-Nov-14 10:10 34.174153 -114.659310 194 10485ft 261kts
02-Nov-14 10:11 34.104045 -114.680964 192 10490ft 260kts
02-Nov-14 10:12 34.032225 -114.692735 188 10498ft 261kts
02-Nov-14 10:13 33.960005 -114.704102 188 10499ft 262kts
02-Nov-14 10:14 33.887790 -114.715448 188 10499ft 262kts
02-Nov-14 10:15 33.815404 -114.726806 188 10499ft 262kts
02-Nov-14 10:16 33.743632 -114.738016 188 10499ft 261kts
02-Nov-14 10:17 33.671401 -114.749243 188 10499ft 262kts
02-Nov-14 10:18 33.598761 -114.760357 184 10493ft 263kts
02-Nov-14 10:19 33.527459 -114.747755 172 10966ft 255kts
02-Nov-14 10:20 33.457908 -114.734325 172 11486ft 254kts
02-Nov-14 10:21 33.386889 -114.720686 172 11500ft 263kts
02-Nov-14 10:22 33.314209 -114.706746 172 11499ft 265kts
02-Nov-14 10:23 33.241314 -114.692787 172 11499ft 266kts
02-Nov-14 10:24 33.167928 -114.678763 172 11499ft 269kts
02-Nov-14 10:25 33.093798 -114.664623 172 11499ft 272kts
02-Nov-14 10:26 33.018791 -114.650312 172 11499ft 273kts
02-Nov-14 10:27 32.943833 -114.636067 172 11499ft 273kts
02-Nov-14 10:28 32.869017 -114.621861 172 11500ft 273kts
02-Nov-14 10:29 32.794109 -114.608251 181 11486ft 272kts
02-Nov-14 10:30 32.754171 -114.673775 255 11500ft 261kts
02-Nov-14 10:31 32.737122 -114.748617 257 11426ft 263kts
02-Nov-14 10:32 32.718844 -114.832924 257 11132ft 266kts
02-Nov-14 10:33 32.700528 -114.917724 257 10833ft 266kts
02-Nov-14 10:34 32.683487 -114.996259 258 10557ft 266kts
02-Nov-14 10:35 32.665313 -115.079930 258 10509ft 261kts
02-Nov-14 10:36 32.647589 -115.162516 258 10511ft 262kts
02-Nov-14 10:37 32.626473 -115.245565 238 10514ft 267kts
02-Nov-14 10:38 32.583197 -115.317489 236 10511ft 268kts
02-Nov-14 10:39 32.539681 -115.389517 236 10511ft 268kts
02-Nov-14 10:40 32.496089 -115.461616 236 10511ft 268kts
02-Nov-14 10:41 32.452790 -115.533088 237 10511ft 266kts
02-Nov-14 10:42 32.410068 -115.603564 237 10508ft 261kts
02-Nov-14 10:43 32.368167 -115.672590 236 10509ft 255kts
02-Nov-14 10:44 32.326890 -115.740354 236 10508ft 253kts
02-Nov-14 10:45 32.285701 -115.807859 236 10508ft 252kts
02-Nov-14 10:46 32.244713 -115.874959 236 10508ft 252kts
02-Nov-14 10:47 32.203675 -115.941985 236 10508ft 252kts
02-Nov-14 10:48 32.162467 -116.009176 236 10510ft 252kts
02-Nov-14 10:49 32.130673 -116.060934 236 10518ft 253kts
02-Nov-14 10:50 32.089002 -116.128876 236 9867ft 252kts
02-Nov-14 10:51 32.048462 -116.195161 235 8656ft 247kts
02-Nov-14 10:52 32.008274 -116.260322 233 7481ft 245kts
02-Nov-14 10:53 31.968090 -116.325270 232 6491ft 244kts
02-Nov-14 10:54 31.929046 -116.387887 232 6500ft 234kts
02-Nov-14 10:55 31.890027 -116.449585 232 6501ft 235kts
02-Nov-14 10:56 31.849474 -116.513428 232 5623ft 251kts
02-Nov-14 10:57 31.830633 -116.577426 293 3652ft 207kts
02-Nov-14 10:58 31.858185 -116.633312 304 1609ft 188kts
02-Nov-14 10:59 31.856430 -116.674828 211 1044ft 156kts
02-Nov-14 11:00 31.827151 -116.671975 119 1003ft 147kts
02-Nov-14 11:01 31.811028 -116.630973 125 567ft 93kts
02-Nov-14 11:02 31.799568 -116.610925 123 121ft 84kts
02-Nov-14 11:03 31.793001 -116.599162 123 69ft 15kts
02-Nov-14 11:04 31.791931 -116.595975 354 69ft 10kts
02-Nov-14 11:05 31.794734 -116.596154 359 69ft 11kts
02-Nov-14 11:06 31.798876 -116.596697 338 69ft 10kts
02-Nov-14 11:07 31.800101 -116.597172 336 69ft 0kts

Navigation Log

Ident Type
Flight plan parsing failed, navigation log unavailable